createdAt,value
2023-04-02T00:01:24.319Z,11.90
2023-04-02T00:03:59.522Z,11.90
2023-04-02T00:06:30.545Z,11.90
2023-04-02T00:09:04.683Z,11.90
2023-04-02T00:11:38.082Z,11.90
2023-04-02T00:14:16.834Z,12.00
2023-04-02T00:16:45.655Z,12.00
2023-04-02T00:19:26.307Z,12.00
2023-04-02T00:21:54.301Z,12.00
2023-04-02T00:24:22.394Z,12.00
2023-04-02T00:26:52.885Z,12.00
2023-04-02T00:29:21.272Z,12.00
2023-04-02T00:31:51.967Z,12.00
2023-04-02T00:34:34.076Z,12.00
2023-04-02T00:37:02.014Z,12.00
2023-04-02T00:39:41.716Z,12.00
2023-04-02T00:42:13.255Z,12.10
2023-04-02T00:44:43.307Z,12.10
2023-04-02T00:47:31.898Z,12.10
2023-04-02T00:50:20.209Z,12.10
2023-04-02T00:52:51.297Z,12.00
2023-04-02T00:55:33.679Z,12.00
2023-04-02T00:58:02.424Z,12.00
2023-04-02T01:00:36.175Z,12.00
2023-04-02T01:03:34.608Z,12.00
2023-04-02T01:06:11.104Z,12.00
2023-04-02T01:09:09.393Z,11.90
2023-04-02T01:11:52.806Z,11.90
2023-04-02T01:14:50.459Z,11.90
2023-04-02T01:18:13.830Z,11.90
2023-04-02T01:21:25.542Z,11.90
2023-04-02T01:24:02.954Z,11.90
2023-04-02T01:26:36.907Z,11.90
2023-04-02T01:29:07.048Z,11.80
2023-04-02T01:31:36.019Z,11.80
2023-04-02T01:34:08.310Z,11.80
2023-04-02T01:37:07.424Z,11.80
2023-04-02T01:40:18.085Z,11.90
2023-04-02T01:43:21.134Z,11.90
2023-04-02T01:45:48.509Z,11.90
2023-04-02T01:48:21.501Z,11.90
2023-04-02T01:50:52.766Z,11.90
2023-04-02T01:53:23.625Z,11.90
2023-04-02T01:56:01.688Z,11.90
2023-04-02T01:58:33.673Z,11.90
2023-04-02T02:01:18.453Z,11.90
2023-04-02T02:03:46.287Z,11.90
2023-04-02T02:06:16.764Z,11.90
2023-04-02T02:09:06.058Z,11.90
2023-04-02T02:11:36.562Z,11.90
2023-04-02T02:14:15.684Z,11.90
2023-04-02T02:16:43.239Z,12.00
2023-04-02T02:19:47.355Z,12.00
2023-04-02T02:22:29.972Z,12.00
2023-04-02T02:25:00.507Z,12.00
2023-04-02T02:27:27.583Z,12.00
2023-04-02T02:30:13.411Z,12.00
2023-04-02T02:33:14.637Z,12.00
2023-04-02T02:36:06.516Z,12.00
2023-04-02T02:39:02.352Z,12.00
2023-04-02T02:41:45.355Z,12.00
2023-04-02T02:44:27.813Z,12.00
2023-04-02T02:47:04.728Z,12.00
2023-04-02T02:49:36.694Z,11.90
2023-04-02T02:52:09.595Z,12.00
2023-04-02T02:54:43.109Z,12.00
2023-04-02T02:57:18.634Z,12.00
2023-04-02T02:59:46.639Z,12.00
2023-04-02T03:02:15.498Z,11.90
2023-04-02T03:04:53.164Z,11.90
2023-04-02T03:07:25.647Z,11.90
2023-04-02T03:09:54.053Z,12.00
2023-04-02T03:13:00.857Z,11.90
2023-04-02T03:16:15.470Z,12.00
2023-04-02T03:19:13.094Z,12.00
2023-04-02T03:21:57.382Z,12.00
2023-04-02T03:24:50.051Z,12.00
2023-04-02T03:27:40.638Z,12.00
2023-04-02T03:30:35.542Z,11.90
2023-04-02T03:33:12.308Z,11.90
2023-04-02T03:36:06.422Z,11.90
2023-04-02T03:38:42.211Z,11.90
2023-04-02T03:41:32.256Z,11.90
2023-04-02T03:44:07.836Z,11.90
2023-04-02T03:46:41.909Z,11.90
2023-04-02T03:49:37.055Z,11.90
2023-04-02T03:52:14.800Z,11.90
2023-04-02T03:54:53.889Z,11.90
2023-04-02T03:58:07.097Z,11.90
2023-04-02T04:00:47.305Z,11.90
2023-04-02T04:03:43.673Z,11.90
2023-04-02T04:06:20.277Z,11.80
2023-04-02T04:09:06.395Z,11.80
2023-04-02T04:11:37.806Z,11.90
2023-04-02T04:14:22.107Z,11.90
2023-04-02T04:17:09.553Z,11.90
2023-04-02T04:20:22.158Z,11.90
2023-04-02T04:22:55.811Z,11.90
2023-04-02T04:25:33.921Z,11.80
2023-04-02T04:28:07.951Z,11.90
2023-04-02T04:31:18.172Z,11.80
2023-04-02T04:33:50.710Z,11.80
2023-04-02T04:36:30.289Z,11.80
2023-04-02T04:39:15.060Z,11.90
2023-04-02T04:41:43.720Z,11.90
2023-04-02T04:44:41.530Z,11.90
2023-04-02T04:47:26.752Z,11.90
2023-04-02T04:50:32.760Z,11.90
2023-04-02T04:53:15.738Z,11.90
2023-04-02T04:55:48.572Z,11.90
2023-04-02T04:58:41.117Z,11.90
2023-04-02T05:01:19.107Z,11.90
2023-04-02T05:04:20.049Z,11.90
2023-04-02T05:07:12.350Z,11.90
2023-04-02T05:10:25.790Z,11.90
2023-04-02T05:13:01.752Z,11.80
2023-04-02T05:15:49.003Z,11.90
2023-04-02T05:18:33.167Z,11.90
2023-04-02T05:21:19.736Z,11.90
2023-04-02T05:24:25.468Z,11.90
2023-04-02T05:26:53.653Z,11.80
2023-04-02T05:29:27.808Z,11.80
2023-04-02T05:32:25.032Z,11.90
2023-04-02T05:34:56.065Z,11.90
2023-04-02T05:37:27.537Z,11.90
2023-04-02T05:39:58.623Z,11.80
2023-04-02T05:42:29.637Z,11.80
2023-04-02T05:45:19.846Z,11.80
2023-04-02T05:47:50.753Z,11.80
2023-04-02T05:50:41.107Z,11.80
2023-04-02T05:53:27.247Z,11.80
2023-04-02T05:55:58.544Z,11.80
2023-04-02T05:58:39.193Z,11.80
2023-04-02T06:01:25.561Z,11.80
2023-04-02T06:04:52.583Z,11.80
2023-04-02T06:07:54.161Z,11.80
2023-04-02T06:10:36.678Z,11.80
2023-04-02T06:13:16.895Z,11.80
2023-04-02T06:15:47.190Z,11.80
2023-04-02T06:18:23.011Z,11.70
2023-04-02T06:20:50.275Z,11.70
2023-04-02T06:23:32.476Z,11.70
2023-04-02T06:26:28.589Z,11.70
2023-04-02T06:29:14.519Z,11.70
2023-04-02T06:31:51.231Z,11.70
2023-04-02T06:34:25.048Z,11.80
2023-04-02T06:36:58.057Z,11.80
2023-04-02T06:39:27.600Z,11.80
2023-04-02T06:42:26.226Z,11.80
2023-04-02T06:44:53.542Z,11.80
2023-04-02T06:47:44.541Z,11.80
2023-04-02T06:50:31.599Z,11.80
2023-04-02T06:53:05.283Z,11.90
2023-04-02T06:55:51.177Z,11.90
2023-04-02T06:58:20.125Z,11.90
2023-04-02T07:00:49.803Z,11.90
2023-04-02T07:03:29.919Z,11.90
2023-04-02T07:05:58.325Z,11.90
2023-04-02T07:08:25.686Z,11.90
2023-04-02T07:10:52.935Z,11.90
2023-04-02T07:13:23.702Z,11.90
2023-04-02T07:15:54.316Z,11.90
2023-04-02T07:18:31.708Z,12.00
2023-04-02T07:20:58.974Z,12.00
2023-04-02T07:23:27.295Z,12.00
2023-04-02T07:25:57.163Z,12.00
2023-04-02T07:28:24.713Z,12.00
2023-04-02T07:30:52.526Z,12.00
2023-04-02T07:33:24.916Z,12.10
2023-04-02T07:35:55.176Z,12.10
2023-04-02T07:38:22.599Z,12.10
2023-04-02T07:40:50.419Z,12.20
2023-04-02T07:43:17.635Z,12.20
2023-04-02T07:45:44.812Z,12.20
2023-04-02T07:48:14.317Z,12.20
2023-04-02T07:50:41.932Z,12.20
2023-04-02T07:53:34.455Z,12.30
2023-04-02T07:56:03.622Z,12.30
2023-04-02T07:58:32.800Z,12.30
2023-04-02T08:01:05.541Z,12.30
2023-04-02T08:03:33.110Z,12.30
2023-04-02T08:06:00.461Z,12.20
2023-04-02T08:08:27.567Z,12.20
2023-04-02T08:10:55.657Z,12.20
2023-04-02T08:13:22.863Z,12.20
2023-04-02T08:15:50.095Z,12.20
2023-04-02T08:18:17.278Z,12.20
2023-04-02T08:20:44.613Z,12.10
2023-04-02T08:23:18.065Z,12.10
2023-04-02T08:25:46.322Z,12.10
2023-04-02T08:28:13.748Z,12.10
2023-04-02T08:30:41.314Z,12.00
2023-04-02T08:33:08.579Z,12.00
2023-04-02T08:35:36.010Z,12.00
2023-04-02T08:38:03.594Z,12.00
2023-04-02T08:41:00.151Z,12.00
2023-04-02T08:44:03.426Z,11.90
2023-04-02T08:46:41.602Z,11.90
2023-04-02T08:49:27.203Z,11.90
2023-04-02T08:51:54.314Z,11.90
2023-04-02T08:54:34.798Z,11.90
2023-04-02T08:57:19.322Z,11.90
2023-04-02T08:59:48.043Z,11.90
2023-04-02T09:02:40.834Z,11.90
2023-04-02T09:05:20.054Z,11.90
2023-04-02T09:07:50.579Z,11.90
2023-04-02T09:10:18.690Z,11.90
2023-04-02T09:12:53.020Z,11.90
2023-04-02T09:15:34.455Z,11.90
2023-04-02T09:18:18.453Z,11.90
2023-04-02T09:20:48.402Z,12.00
2023-04-02T09:23:24.996Z,12.00
2023-04-02T09:26:03.477Z,12.00
2023-04-02T09:28:31.839Z,12.00
2023-04-02T09:31:11.921Z,12.10
2023-04-02T09:33:51.720Z,12.10
2023-04-02T09:36:40.104Z,12.20
2023-04-02T09:39:17.820Z,12.30
2023-04-02T09:41:50.270Z,12.30
2023-04-02T09:44:30.516Z,12.30
2023-04-02T09:47:06.607Z,12.40
2023-04-02T09:49:39.941Z,12.40
2023-04-02T09:52:28.107Z,12.40
2023-04-02T09:55:31.200Z,12.50
2023-04-02T09:58:15.014Z,12.50
2023-04-02T10:00:52.296Z,12.50
2023-04-02T10:03:26.754Z,12.50
2023-04-02T10:06:10.829Z,12.50
2023-04-02T10:08:41.628Z,12.50
2023-04-02T10:11:20.217Z,12.50
2023-04-02T10:14:02.134Z,12.50
2023-04-02T10:16:45.650Z,12.50
2023-04-02T10:19:33.171Z,12.40
2023-04-02T10:22:12.621Z,12.40
2023-04-02T10:24:40.337Z,12.40
2023-04-02T10:27:42.512Z,12.30
2023-04-02T10:30:19.654Z,12.30
2023-04-02T10:32:52.744Z,12.30
2023-04-02T10:35:22.765Z,12.30
2023-04-02T10:38:07.616Z,12.40
2023-04-02T10:41:23.581Z,12.40
2023-04-02T10:44:12.590Z,12.40
2023-04-02T10:46:59.687Z,12.40
2023-04-02T10:49:41.530Z,12.40
2023-04-02T10:52:27.725Z,12.40
2023-04-02T10:55:05.874Z,12.40
2023-04-02T10:57:44.004Z,12.50
2023-04-02T11:00:38.056Z,12.50
2023-04-02T11:03:42.742Z,12.60
2023-04-02T11:06:32.003Z,12.60
2023-04-02T11:09:05.489Z,12.70
2023-04-02T11:11:37.724Z,12.80
2023-04-02T11:14:29.526Z,12.80
2023-04-02T11:17:00.781Z,12.90
2023-04-02T11:19:33.555Z,12.90
2023-04-02T11:22:20.854Z,13.00
2023-04-02T11:24:52.950Z,13.10
2023-04-02T11:27:34.205Z,13.10
2023-04-02T11:30:30.842Z,13.20
2023-04-02T11:33:45.586Z,13.30
2023-04-02T11:36:55.188Z,13.30
2023-04-02T11:39:56.978Z,13.30
2023-04-02T11:42:38.261Z,13.40
2023-04-02T11:45:28.559Z,13.40
2023-04-02T11:48:08.459Z,13.30
2023-04-02T11:50:41.783Z,13.30
2023-04-02T11:53:11.879Z,13.30
2023-04-02T11:55:41.518Z,13.30
2023-04-02T11:58:52.209Z,13.30
2023-04-02T12:01:34.088Z,13.30
2023-04-02T12:04:43.693Z,13.30
2023-04-02T12:07:35.166Z,13.30
2023-04-02T12:10:32.512Z,13.30
2023-04-02T12:12:59.766Z,13.20
2023-04-02T12:15:34.782Z,13.20
2023-04-02T12:18:23.613Z,13.20
2023-04-02T12:20:56.109Z,13.20
2023-04-02T12:23:36.716Z,13.30
2023-04-02T12:26:08.452Z,13.30
2023-04-02T12:28:38.331Z,13.30
2023-04-02T12:31:19.267Z,13.30
2023-04-02T12:33:46.843Z,13.40
2023-04-02T12:36:17.264Z,13.40
2023-04-02T12:38:53.408Z,13.40
2023-04-02T12:41:27.463Z,13.40
2023-04-02T12:44:06.738Z,13.40
2023-04-02T12:46:35.979Z,13.40
2023-04-02T12:49:40.403Z,13.40
2023-04-02T12:52:15.076Z,13.40
2023-04-02T12:54:48.429Z,13.40
2023-04-02T12:57:28.898Z,13.40
2023-04-02T13:00:22.850Z,13.40
2023-04-02T13:03:06.619Z,13.40
2023-04-02T13:05:42.744Z,13.40
2023-04-02T13:08:30.825Z,13.50
2023-04-02T13:11:03.898Z,13.50
2023-04-02T13:13:38.045Z,13.50
2023-04-02T13:16:20.548Z,13.50
2023-04-02T13:18:49.720Z,13.60
2023-04-02T13:21:19.938Z,13.60
2023-04-02T13:23:47.581Z,13.60
2023-04-02T13:26:32.924Z,13.60
2023-04-02T13:29:22.027Z,13.70
2023-04-02T13:31:50.594Z,13.70
2023-04-02T13:34:18.449Z,13.70
2023-04-02T13:36:46.656Z,13.70
2023-04-02T13:39:14.620Z,13.80
2023-04-02T13:41:49.291Z,13.80
2023-04-02T13:44:26.602Z,13.90
2023-04-02T13:46:55.050Z,13.90
2023-04-02T13:49:24.097Z,14.00
2023-04-02T13:52:00.944Z,14.00
2023-04-02T13:54:44.852Z,14.10
2023-04-02T13:57:12.409Z,14.10
2023-04-02T13:59:39.527Z,14.10
2023-04-02T14:02:17.417Z,14.10
2023-04-02T14:04:52.558Z,14.10
2023-04-02T14:07:37.854Z,14.10
2023-04-02T14:10:14.742Z,14.00
2023-04-02T14:13:12.538Z,14.00
2023-04-02T14:15:59.057Z,13.90
2023-04-02T14:19:07.539Z,13.80
2023-04-02T14:22:15.201Z,13.80
2023-04-02T14:24:51.611Z,13.70
2023-04-02T14:27:44.351Z,13.70
2023-04-02T14:30:49.399Z,13.60
2023-04-02T14:33:50.032Z,13.60
2023-04-02T14:36:29.934Z,13.60
2023-04-02T14:39:41.610Z,13.60
2023-04-02T14:42:18.512Z,13.70
2023-04-02T14:44:53.515Z,13.70
2023-04-02T14:47:54.767Z,13.70
2023-04-02T14:50:41.217Z,13.80
2023-04-02T14:53:18.273Z,13.80
2023-04-02T14:55:48.693Z,13.80
2023-04-02T14:58:53.882Z,13.80
2023-04-02T15:01:41.454Z,13.90
2023-04-02T15:04:23.082Z,13.80
2023-04-02T15:06:54.840Z,13.80
2023-04-02T15:09:33.271Z,13.80
2023-04-02T15:12:10.535Z,13.80
2023-04-02T15:14:45.976Z,13.70
2023-04-02T15:17:13.766Z,13.70
2023-04-02T15:19:40.902Z,13.70
2023-04-02T15:22:36.517Z,13.60
2023-04-02T15:25:18.632Z,13.60
2023-04-02T15:28:20.795Z,13.60
2023-04-02T15:30:57.239Z,13.50
2023-04-02T15:33:24.282Z,13.40
2023-04-02T15:36:23.492Z,13.40
2023-04-02T15:39:01.173Z,13.40
2023-04-02T15:41:39.034Z,13.30
2023-04-02T15:44:14.630Z,13.30
2023-04-02T15:47:27.056Z,13.20
2023-04-02T15:50:23.378Z,13.20
2023-04-02T15:53:08.982Z,13.20
2023-04-02T15:55:46.448Z,13.20
2023-04-02T15:58:47.611Z,13.10
2023-04-02T16:01:50.214Z,13.10
2023-04-02T16:04:35.677Z,13.00
2023-04-02T16:07:34.716Z,13.00
2023-04-02T16:10:40.939Z,13.00
2023-04-02T16:13:37.803Z,13.00
2023-04-02T16:16:17.562Z,13.00
2023-04-02T16:19:16.023Z,12.90
2023-04-02T16:21:53.320Z,12.90
2023-04-02T16:24:20.526Z,12.90
2023-04-02T16:27:15.120Z,12.90
2023-04-02T16:30:19.760Z,12.80
2023-04-02T16:32:55.761Z,12.80
2023-04-02T16:35:53.762Z,12.80
2023-04-02T16:38:42.593Z,12.70
2023-04-02T16:41:41.450Z,12.70
2023-04-02T16:44:46.117Z,12.60
2023-04-02T16:47:59.950Z,12.50
2023-04-02T16:50:45.225Z,12.40
2023-04-02T16:53:35.477Z,12.30
2023-04-02T16:56:30.232Z,12.30
2023-04-02T16:59:29.635Z,12.20
2023-04-02T17:02:34.737Z,12.10
2023-04-02T17:05:27.863Z,12.00
2023-04-02T17:08:09.236Z,12.00
2023-04-02T17:10:58.061Z,11.90
2023-04-02T17:13:47.589Z,11.80
2023-04-02T17:16:31.707Z,11.80
2023-04-02T17:18:59.248Z,11.70
2023-04-02T17:21:29.478Z,11.70
2023-04-02T17:24:20.735Z,11.60
2023-04-02T17:26:59.028Z,11.60
2023-04-02T17:29:41.359Z,11.50
2023-04-02T17:32:29.890Z,11.50
2023-04-02T17:35:16.153Z,11.40
2023-04-02T17:38:02.923Z,11.40
2023-04-02T17:40:50.583Z,11.30
2023-04-02T17:43:51.543Z,11.30
2023-04-02T17:46:38.300Z,11.20
2023-04-02T17:49:28.603Z,11.10
2023-04-02T17:52:21.726Z,11.10
2023-04-02T17:55:14.667Z,11.00
2023-04-02T17:58:09.778Z,10.90
2023-04-02T18:01:05.471Z,10.90
2023-04-02T18:04:25.981Z,10.80
2023-04-02T18:07:14.750Z,10.70
2023-04-02T18:10:07.884Z,10.70
2023-04-02T18:12:55.667Z,10.60
2023-04-02T18:15:41.431Z,10.60
2023-04-02T18:18:26.678Z,10.50
2023-04-02T18:21:23.542Z,10.50
2023-04-02T18:24:21.137Z,10.40
2023-04-02T18:27:21.761Z,10.30
2023-04-02T18:30:06.727Z,10.30
2023-04-02T18:33:11.118Z,10.20
2023-04-02T18:36:02.792Z,10.20
2023-04-02T18:39:02.967Z,10.20
2023-04-02T18:41:51.620Z,10.10
2023-04-02T18:45:20.979Z,10.10
2023-04-02T18:48:09.465Z,10.10
2023-04-02T18:50:40.816Z,10.00
2023-04-02T18:53:18.949Z,9.90
2023-04-02T18:55:55.630Z,9.90
2023-04-02T18:58:42.841Z,9.80
2023-04-02T19:01:14.713Z,9.80
2023-04-02T19:03:50.288Z,9.70
2023-04-02T19:06:27.200Z,9.70
2023-04-02T19:09:24.660Z,9.60
2023-04-02T19:11:53.143Z,9.60
2023-04-02T19:14:23.625Z,9.50
2023-04-02T19:17:22.968Z,9.50
2023-04-02T19:20:38.111Z,9.50
2023-04-02T19:23:46.673Z,9.40
2023-04-02T19:26:22.927Z,9.40
2023-04-02T19:29:14.228Z,9.30
2023-04-02T19:32:15.199Z,9.30
2023-04-02T19:35:26.682Z,9.30
2023-04-02T19:38:14.246Z,9.20
2023-04-02T19:41:18.457Z,9.20
2023-04-02T19:43:45.663Z,9.20
2023-04-02T19:46:12.936Z,9.10
2023-04-02T19:49:03.769Z,9.10
2023-04-02T19:51:30.993Z,9.00
2023-04-02T19:53:58.098Z,9.00
2023-04-02T19:56:25.905Z,9.00
2023-04-02T19:58:53.021Z,8.90
2023-04-02T20:01:20.478Z,8.90
2023-04-02T20:03:47.661Z,8.90
2023-04-02T20:06:15.500Z,8.80
2023-04-02T20:08:42.655Z,8.80
2023-04-02T20:11:09.959Z,8.70
2023-04-02T20:13:37.650Z,8.70
2023-04-02T20:16:06.664Z,8.70
2023-04-02T20:18:34.194Z,8.70
2023-04-02T20:21:06.342Z,8.60
2023-04-02T20:23:35.162Z,8.60
2023-04-02T20:26:03.321Z,8.60
2023-04-02T20:28:31.421Z,8.50
2023-04-02T20:31:14.885Z,8.50
2023-04-02T20:33:43.132Z,8.50
2023-04-02T20:36:17.233Z,8.50
2023-04-02T20:38:45.816Z,8.50
2023-04-02T20:41:15.727Z,8.40
2023-04-02T20:43:42.969Z,8.40
2023-04-02T20:46:12.707Z,8.40
2023-04-02T20:48:40.378Z,8.40
2023-04-02T20:51:11.455Z,8.30
2023-04-02T20:53:38.765Z,8.30
2023-04-02T20:56:12.842Z,8.30
2023-04-02T20:58:41.040Z,8.30
2023-04-02T21:01:23.234Z,8.20
2023-04-02T21:03:58.994Z,8.20
2023-04-02T21:06:32.784Z,8.20
2023-04-02T21:09:02.095Z,8.10
2023-04-02T21:11:29.218Z,8.10
2023-04-02T21:13:57.196Z,8.10
2023-04-02T21:16:32.163Z,8.00
2023-04-02T21:19:07.179Z,8.00
2023-04-02T21:21:49.893Z,8.00
2023-04-02T21:24:17.824Z,7.90
2023-04-02T21:26:46.523Z,7.90
2023-04-02T21:29:13.830Z,7.90
2023-04-02T21:31:42.044Z,7.90
2023-04-02T21:34:13.620Z,7.90
2023-04-02T21:36:44.367Z,7.90
2023-04-02T21:39:17.904Z,7.90
2023-04-02T21:41:47.188Z,7.90
2023-04-02T21:44:16.113Z,7.80
2023-04-02T21:46:44.762Z,7.80
2023-04-02T21:49:14.780Z,7.90
2023-04-02T21:51:44.251Z,7.80
2023-04-02T21:54:11.386Z,7.90
2023-04-02T21:56:45.302Z,7.90
2023-04-02T21:59:14.321Z,7.90
2023-04-02T22:01:48.683Z,7.90
2023-04-02T22:04:26.650Z,7.90
2023-04-02T22:06:54.470Z,7.90
2023-04-02T22:09:25.913Z,7.90
2023-04-02T22:11:59.193Z,7.90
2023-04-02T22:14:27.619Z,7.90
2023-04-02T22:16:55.124Z,7.90
2023-04-02T22:19:22.540Z,7.90
2023-04-02T22:21:50.125Z,7.90
2023-04-02T22:24:27.312Z,7.90
2023-04-02T22:26:54.594Z,7.90
2023-04-02T22:29:21.904Z,7.90
2023-04-02T22:31:49.028Z,7.90
2023-04-02T22:34:16.236Z,7.90
2023-04-02T22:36:43.424Z,7.90
2023-04-02T22:39:12.464Z,7.90
2023-04-02T22:41:39.860Z,7.90
2023-04-02T22:44:07.106Z,7.90
2023-04-02T22:46:34.864Z,7.90
2023-04-02T22:49:02.084Z,7.90
2023-04-02T22:51:30.665Z,7.90
2023-04-02T22:53:58.116Z,7.90
2023-04-02T22:56:28.906Z,7.90
2023-04-02T22:58:56.150Z,8.00
2023-04-02T23:01:31.629Z,7.90
2023-04-02T23:03:58.932Z,8.00
2023-04-02T23:06:26.832Z,8.00
2023-04-02T23:08:53.960Z,8.00
2023-04-02T23:11:24.153Z,8.00
2023-04-02T23:13:53.859Z,8.00
2023-04-02T23:16:22.832Z,8.00
2023-04-02T23:18:51.063Z,8.00
2023-04-02T23:21:19.881Z,8.00
2023-04-02T23:23:48.739Z,8.00
2023-04-02T23:26:32.125Z,8.00
2023-04-02T23:29:00.703Z,8.00
2023-04-02T23:31:28.554Z,8.00
2023-04-02T23:33:55.868Z,7.90
2023-04-02T23:36:29.016Z,7.90
2023-04-02T23:39:10.401Z,7.90
2023-04-02T23:41:39.593Z,7.90
2023-04-02T23:44:06.784Z,7.90
2023-04-02T23:46:35.130Z,7.90
2023-04-02T23:49:03.831Z,7.90
2023-04-02T23:51:32.339Z,7.90
2023-04-02T23:53:59.686Z,7.80
2023-04-02T23:56:27.183Z,7.80
2023-04-02T23:58:54.389Z,7.80
